sensor_id;sensor_type;location;lat;lon;timestamp;P1;durP1;ratioP1;P2;durP2;ratioP2
2396;SDS011;1209;48.410;9.054;2023-08-17T00:01:51;6.50;;;4.33;;
2396;SDS011;1209;48.410;9.054;2023-08-17T00:04:17;5.23;;;3.63;;
2396;SDS011;1209;48.410;9.054;2023-08-17T00:06:42;5.40;;;4.17;;
2396;SDS011;1209;48.410;9.054;2023-08-17T00:09:08;6.60;;;4.20;;
2396;SDS011;1209;48.410;9.054;2023-08-17T00:11:34;7.53;;;3.57;;
2396;SDS011;1209;48.410;9.054;2023-08-17T00:14:00;4.17;;;3.73;;
2396;SDS011;1209;48.410;9.054;2023-08-17T00:16:26;4.33;;;3.93;;
2396;SDS011;1209;48.410;9.054;2023-08-17T00:18:51;4.20;;;3.80;;
2396;SDS011;1209;48.410;9.054;2023-08-17T00:21:17;7.50;;;4.63;;
2396;SDS011;1209;48.410;9.054;2023-08-17T00:23:42;4.77;;;4.00;;
2396;SDS011;1209;48.410;9.054;2023-08-17T00:26:08;5.10;;;4.40;;
2396;SDS011;1209;48.410;9.054;2023-08-17T00:28:34;4.07;;;3.60;;
2396;SDS011;1209;48.410;9.054;2023-08-17T00:31:00;5.47;;;4.13;;
2396;SDS011;1209;48.410;9.054;2023-08-17T00:33:25;4.03;;;3.70;;
2396;SDS011;1209;48.410;9.054;2023-08-17T00:35:50;3.83;;;3.43;;
2396;SDS011;1209;48.410;9.054;2023-08-17T00:38:16;4.00;;;3.57;;
2396;SDS011;1209;48.410;9.054;2023-08-17T00:40:41;3.63;;;3.33;;
2396;SDS011;1209;48.410;9.054;2023-08-17T00:43:07;5.90;;;3.77;;
2396;SDS011;1209;48.410;9.054;2023-08-17T00:45:32;5.00;;;3.87;;
2396;SDS011;1209;48.410;9.054;2023-08-17T00:47:57;5.03;;;4.53;;
2396;SDS011;1209;48.410;9.054;2023-08-17T00:50:26;6.03;;;3.70;;
2396;SDS011;1209;48.410;9.054;2023-08-17T00:52:53;6.97;;;3.77;;
2396;SDS011;1209;48.410;9.054;2023-08-17T00:55:19;4.37;;;4.00;;
2396;SDS011;1209;48.410;9.054;2023-08-17T00:57:45;5.53;;;3.80;;
2396;SDS011;1209;48.410;9.054;2023-08-17T01:00:12;9.30;;;4.53;;
2396;SDS011;1209;48.410;9.054;2023-08-17T01:02:38;5.53;;;4.43;;
2396;SDS011;1209;48.410;9.054;2023-08-17T01:05:06;4.80;;;4.17;;
2396;SDS011;1209;48.410;9.054;2023-08-17T01:07:31;4.80;;;4.13;;
2396;SDS011;1209;48.410;9.054;2023-08-17T01:09:57;4.53;;;3.60;;
2396;SDS011;1209;48.410;9.054;2023-08-17T01:14:58;5.93;;;4.53;;
2396;SDS011;1209;48.410;9.054;2023-08-17T01:17:40;4.40;;;3.63;;
2396;SDS011;1209;48.410;9.054;2023-08-17T01:20:09;3.83;;;3.50;;
2396;SDS011;1209;48.410;9.054;2023-08-17T01:22:37;6.60;;;4.67;;
2396;SDS011;1209;48.410;9.054;2023-08-17T01:25:05;4.17;;;3.77;;
2396;SDS011;1209;48.410;9.054;2023-08-17T01:27:33;3.80;;;3.50;;
2396;SDS011;1209;48.410;9.054;2023-08-17T01:30:03;4.03;;;3.73;;
2396;SDS011;1209;48.410;9.054;2023-08-17T01:32:30;6.17;;;3.40;;
2396;SDS011;1209;48.410;9.054;2023-08-17T01:35:04;4.20;;;3.90;;
2396;SDS011;1209;48.410;9.054;2023-08-17T01:37:52;6.03;;;3.87;;
2396;SDS011;1209;48.410;9.054;2023-08-17T01:40:18;5.53;;;4.00;;
2396;SDS011;1209;48.410;9.054;2023-08-17T01:42:45;5.87;;;4.47;;
2396;SDS011;1209;48.410;9.054;2023-08-17T01:45:11;5.00;;;4.50;;
2396;SDS011;1209;48.410;9.054;2023-08-17T01:47:36;5.47;;;4.07;;
2396;SDS011;1209;48.410;9.054;2023-08-17T01:50:02;4.67;;;3.73;;
2396;SDS011;1209;48.410;9.054;2023-08-17T01:52:27;8.53;;;4.83;;
2396;SDS011;1209;48.410;9.054;2023-08-17T01:54:53;5.07;;;4.13;;
2396;SDS011;1209;48.410;9.054;2023-08-17T01:57:18;4.50;;;4.10;;
2396;SDS011;1209;48.410;9.054;2023-08-17T01:59:43;5.60;;;3.93;;
2396;SDS011;1209;48.410;9.054;2023-08-17T02:02:09;4.23;;;3.87;;
2396;SDS011;1209;48.410;9.054;2023-08-17T02:04:36;3.83;;;3.50;;
2396;SDS011;1209;48.410;9.054;2023-08-17T02:07:01;4.57;;;3.87;;
2396;SDS011;1209;48.410;9.054;2023-08-17T02:09:27;4.00;;;3.60;;
2396;SDS011;1209;48.410;9.054;2023-08-17T02:11:52;4.10;;;3.50;;
2396;SDS011;1209;48.410;9.054;2023-08-17T02:14:17;5.33;;;3.90;;
2396;SDS011;1209;48.410;9.054;2023-08-17T02:16:43;5.20;;;4.73;;
2396;SDS011;1209;48.410;9.054;2023-08-17T02:19:08;4.40;;;4.00;;
2396;SDS011;1209;48.410;9.054;2023-08-17T02:21:33;5.30;;;4.00;;
2396;SDS011;1209;48.410;9.054;2023-08-17T02:23:58;5.23;;;4.10;;
2396;SDS011;1209;48.410;9.054;2023-08-17T02:26:24;4.70;;;4.30;;
2396;SDS011;1209;48.410;9.054;2023-08-17T02:28:49;3.80;;;3.50;;
2396;SDS011;1209;48.410;9.054;2023-08-17T02:31:14;10.83;;;4.80;;
2396;SDS011;1209;48.410;9.054;2023-08-17T02:33:39;4.43;;;4.03;;
2396;SDS011;1209;48.410;9.054;2023-08-17T02:36:05;3.80;;;3.50;;
2396;SDS011;1209;48.410;9.054;2023-08-17T02:38:30;4.53;;;4.13;;
2396;SDS011;1209;48.410;9.054;2023-08-17T02:40:56;3.90;;;3.60;;
2396;SDS011;1209;48.410;9.054;2023-08-17T02:43:21;5.00;;;3.57;;
2396;SDS011;1209;48.410;9.054;2023-08-17T02:45:46;7.10;;;4.40;;
2396;SDS011;1209;48.410;9.054;2023-08-17T02:48:24;6.37;;;4.40;;
2396;SDS011;1209;48.410;9.054;2023-08-17T02:50:50;4.80;;;3.77;;
2396;SDS011;1209;48.410;9.054;2023-08-17T02:53:15;4.40;;;4.00;;
2396;SDS011;1209;48.410;9.054;2023-08-17T02:55:40;7.27;;;4.63;;
2396;SDS011;1209;48.410;9.054;2023-08-17T02:58:05;4.37;;;3.90;;
2396;SDS011;1209;48.410;9.054;2023-08-17T03:00:31;4.67;;;4.17;;
2396;SDS011;1209;48.410;9.054;2023-08-17T03:02:56;5.50;;;4.30;;
2396;SDS011;1209;48.410;9.054;2023-08-17T03:05:21;5.07;;;4.13;;
2396;SDS011;1209;48.410;9.054;2023-08-17T03:07:47;4.80;;;4.33;;
2396;SDS011;1209;48.410;9.054;2023-08-17T03:10:12;4.67;;;4.27;;
2396;SDS011;1209;48.410;9.054;2023-08-17T03:12:37;6.13;;;4.93;;
2396;SDS011;1209;48.410;9.054;2023-08-17T03:15:04;4.77;;;4.37;;
2396;SDS011;1209;48.410;9.054;2023-08-17T03:17:30;4.80;;;4.10;;
2396;SDS011;1209;48.410;9.054;2023-08-17T03:19:56;5.37;;;3.77;;
2396;SDS011;1209;48.410;9.054;2023-08-17T03:22:24;6.83;;;3.97;;
2396;SDS011;1209;48.410;9.054;2023-08-17T03:24:50;4.50;;;4.03;;
2396;SDS011;1209;48.410;9.054;2023-08-17T03:27:15;5.10;;;3.93;;
2396;SDS011;1209;48.410;9.054;2023-08-17T03:29:40;4.70;;;3.90;;
2396;SDS011;1209;48.410;9.054;2023-08-17T03:32:05;4.80;;;4.23;;
2396;SDS011;1209;48.410;9.054;2023-08-17T03:34:31;4.27;;;3.87;;
2396;SDS011;1209;48.410;9.054;2023-08-17T03:36:56;4.63;;;4.23;;
2396;SDS011;1209;48.410;9.054;2023-08-17T03:39:21;4.30;;;3.90;;
2396;SDS011;1209;48.410;9.054;2023-08-17T03:41:46;5.13;;;4.60;;
2396;SDS011;1209;48.410;9.054;2023-08-17T03:44:12;4.53;;;4.00;;
2396;SDS011;1209;48.410;9.054;2023-08-17T03:46:38;7.00;;;4.33;;
2396;SDS011;1209;48.410;9.054;2023-08-17T03:49:04;4.40;;;3.83;;
2396;SDS011;1209;48.410;9.054;2023-08-17T03:51:29;3.77;;;3.47;;
2396;SDS011;1209;48.410;9.054;2023-08-17T03:53:54;4.97;;;3.83;;
2396;SDS011;1209;48.410;9.054;2023-08-17T03:56:20;4.83;;;4.33;;
2396;SDS011;1209;48.410;9.054;2023-08-17T03:58:45;5.30;;;4.80;;
2396;SDS011;1209;48.410;9.054;2023-08-17T04:01:10;5.80;;;4.47;;
2396;SDS011;1209;48.410;9.054;2023-08-17T04:03:36;5.43;;;4.57;;
2396;SDS011;1209;48.410;9.054;2023-08-17T04:06:05;3.90;;;3.57;;
2396;SDS011;1209;48.410;9.054;2023-08-17T04:08:31;5.23;;;4.30;;
2396;SDS011;1209;48.410;9.054;2023-08-17T04:10:57;4.33;;;3.93;;
2396;SDS011;1209;48.410;9.054;2023-08-17T04:13:22;5.03;;;4.53;;
2396;SDS011;1209;48.410;9.054;2023-08-17T04:15:47;4.80;;;4.40;;
2396;SDS011;1209;48.410;9.054;2023-08-17T04:18:12;6.67;;;4.77;;
2396;SDS011;1209;48.410;9.054;2023-08-17T04:20:38;4.50;;;3.83;;
2396;SDS011;1209;48.410;9.054;2023-08-17T04:23:03;5.63;;;4.83;;
2396;SDS011;1209;48.410;9.054;2023-08-17T04:25:28;5.00;;;4.50;;
2396;SDS011;1209;48.410;9.054;2023-08-17T04:27:54;6.10;;;5.30;;
2396;SDS011;1209;48.410;9.054;2023-08-17T04:30:19;4.60;;;4.10;;
2396;SDS011;1209;48.410;9.054;2023-08-17T04:32:44;6.40;;;5.10;;
2396;SDS011;1209;48.410;9.054;2023-08-17T04:35:15;6.53;;;4.50;;
2396;SDS011;1209;48.410;9.054;2023-08-17T04:37:41;7.87;;;5.73;;
2396;SDS011;1209;48.410;9.054;2023-08-17T04:40:06;5.63;;;5.13;;
2396;SDS011;1209;48.410;9.054;2023-08-17T04:42:32;4.47;;;4.07;;
2396;SDS011;1209;48.410;9.054;2023-08-17T04:44:57;6.07;;;4.77;;
2396;SDS011;1209;48.410;9.054;2023-08-17T04:47:23;5.47;;;4.33;;
2396;SDS011;1209;48.410;9.054;2023-08-17T04:49:48;4.83;;;4.27;;
2396;SDS011;1209;48.410;9.054;2023-08-17T04:52:14;5.73;;;4.77;;
2396;SDS011;1209;48.410;9.054;2023-08-17T04:54:39;5.67;;;5.07;;
2396;SDS011;1209;48.410;9.054;2023-08-17T04:57:05;6.10;;;4.90;;
2396;SDS011;1209;48.410;9.054;2023-08-17T04:59:30;6.10;;;4.53;;
2396;SDS011;1209;48.410;9.054;2023-08-17T05:01:55;5.13;;;4.67;;
2396;SDS011;1209;48.410;9.054;2023-08-17T05:04:21;8.30;;;4.87;;
2396;SDS011;1209;48.410;9.054;2023-08-17T05:06:46;6.27;;;4.93;;
2396;SDS011;1209;48.410;9.054;2023-08-17T05:09:11;4.70;;;4.30;;
2396;SDS011;1209;48.410;9.054;2023-08-17T05:11:37;5.70;;;4.93;;
2396;SDS011;1209;48.410;9.054;2023-08-17T05:14:02;8.27;;;5.20;;
2396;SDS011;1209;48.410;9.054;2023-08-17T05:16:28;5.23;;;4.23;;
2396;SDS011;1209;48.410;9.054;2023-08-17T05:18:53;5.37;;;4.87;;
2396;SDS011;1209;48.410;9.054;2023-08-17T05:21:18;5.90;;;5.30;;
2396;SDS011;1209;48.410;9.054;2023-08-17T05:23:44;6.37;;;5.40;;
2396;SDS011;1209;48.410;9.054;2023-08-17T05:26:09;6.07;;;5.13;;
2396;SDS011;1209;48.410;9.054;2023-08-17T05:28:34;6.20;;;5.00;;
2396;SDS011;1209;48.410;9.054;2023-08-17T05:31:04;6.10;;;5.50;;
2396;SDS011;1209;48.410;9.054;2023-08-17T05:33:33;12.20;;;6.53;;
2396;SDS011;1209;48.410;9.054;2023-08-17T05:35:58;8.43;;;6.13;;
2396;SDS011;1209;48.410;9.054;2023-08-17T05:38:24;9.93;;;6.33;;
2396;SDS011;1209;48.410;9.054;2023-08-17T05:40:55;7.30;;;6.50;;
2396;SDS011;1209;48.410;9.054;2023-08-17T05:43:22;10.27;;;5.83;;
2396;SDS011;1209;48.410;9.054;2023-08-17T05:45:47;10.77;;;7.67;;
2396;SDS011;1209;48.410;9.054;2023-08-17T05:48:13;10.23;;;7.43;;
2396;SDS011;1209;48.410;9.054;2023-08-17T05:50:40;6.37;;;5.70;;
2396;SDS011;1209;48.410;9.054;2023-08-17T05:53:06;6.90;;;5.43;;
2396;SDS011;1209;48.410;9.054;2023-08-17T05:55:32;13.93;;;6.43;;
2396;SDS011;1209;48.410;9.054;2023-08-17T05:57:57;8.50;;;6.37;;
2396;SDS011;1209;48.410;9.054;2023-08-17T06:00:22;8.37;;;6.67;;
2396;SDS011;1209;48.410;9.054;2023-08-17T06:02:48;11.40;;;7.00;;
2396;SDS011;1209;48.410;9.054;2023-08-17T06:05:16;9.17;;;6.30;;
2396;SDS011;1209;48.410;9.054;2023-08-17T06:07:41;8.07;;;6.20;;
2396;SDS011;1209;48.410;9.054;2023-08-17T06:10:07;12.60;;;5.97;;
2396;SDS011;1209;48.410;9.054;2023-08-17T06:12:32;7.93;;;5.43;;
2396;SDS011;1209;48.410;9.054;2023-08-17T06:14:58;9.53;;;6.53;;
2396;SDS011;1209;48.410;9.054;2023-08-17T06:17:23;6.53;;;5.60;;
2396;SDS011;1209;48.410;9.054;2023-08-17T06:19:48;8.40;;;6.27;;
2396;SDS011;1209;48.410;9.054;2023-08-17T06:22:13;7.57;;;6.30;;
2396;SDS011;1209;48.410;9.054;2023-08-17T06:24:39;6.80;;;5.90;;
2396;SDS011;1209;48.410;9.054;2023-08-17T06:27:04;9.50;;;6.20;;
2396;SDS011;1209;48.410;9.054;2023-08-17T06:29:29;9.00;;;5.83;;
2396;SDS011;1209;48.410;9.054;2023-08-17T06:31:55;8.30;;;6.47;;
2396;SDS011;1209;48.410;9.054;2023-08-17T06:34:20;11.03;;;7.83;;
2396;SDS011;1209;48.410;9.054;2023-08-17T06:36:56;8.17;;;6.50;;
2396;SDS011;1209;48.410;9.054;2023-08-17T06:39:23;9.77;;;6.10;;
2396;SDS011;1209;48.410;9.054;2023-08-17T06:41:48;9.90;;;7.10;;
2396;SDS011;1209;48.410;9.054;2023-08-17T06:44:14;7.10;;;6.40;;
2396;SDS011;1209;48.410;9.054;2023-08-17T06:46:39;8.57;;;6.90;;
2396;SDS011;1209;48.410;9.054;2023-08-17T06:49:04;7.20;;;5.50;;
2396;SDS011;1209;48.410;9.054;2023-08-17T06:51:30;7.87;;;5.43;;
2396;SDS011;1209;48.410;9.054;2023-08-17T06:53:55;6.53;;;5.80;;
2396;SDS011;1209;48.410;9.054;2023-08-17T06:56:20;8.47;;;6.07;;
2396;SDS011;1209;48.410;9.054;2023-08-17T06:58:47;7.20;;;6.30;;
2396;SDS011;1209;48.410;9.054;2023-08-17T07:01:13;7.27;;;6.40;;
2396;SDS011;1209;48.410;9.054;2023-08-17T07:03:39;10.43;;;6.97;;
2396;SDS011;1209;48.410;9.054;2023-08-17T07:06:05;8.80;;;6.20;;
2396;SDS011;1209;48.410;9.054;2023-08-17T07:08:30;7.70;;;6.00;;
2396;SDS011;1209;48.410;9.054;2023-08-17T07:10:55;6.60;;;5.90;;
2396;SDS011;1209;48.410;9.054;2023-08-17T07:13:21;7.17;;;6.00;;
2396;SDS011;1209;48.410;9.054;2023-08-17T07:15:46;9.43;;;6.80;;
2396;SDS011;1209;48.410;9.054;2023-08-17T07:18:11;8.10;;;6.20;;
2396;SDS011;1209;48.410;9.054;2023-08-17T07:20:36;7.40;;;6.17;;
2396;SDS011;1209;48.410;9.054;2023-08-17T07:23:02;7.10;;;6.07;;
2396;SDS011;1209;48.410;9.054;2023-08-17T07:25:27;6.70;;;5.67;;
2396;SDS011;1209;48.410;9.054;2023-08-17T07:27:53;6.73;;;6.10;;
2396;SDS011;1209;48.410;9.054;2023-08-17T07:30:19;6.10;;;5.50;;
2396;SDS011;1209;48.410;9.054;2023-08-17T07:32:44;8.33;;;6.40;;
2396;SDS011;1209;48.410;9.054;2023-08-17T07:35:09;7.30;;;6.17;;
2396;SDS011;1209;48.410;9.054;2023-08-17T07:37:35;8.50;;;7.07;;
2396;SDS011;1209;48.410;9.054;2023-08-17T07:40:01;7.00;;;5.87;;
2396;SDS011;1209;48.410;9.054;2023-08-17T07:42:29;11.23;;;7.30;;
2396;SDS011;1209;48.410;9.054;2023-08-17T07:44:54;9.77;;;6.73;;
2396;SDS011;1209;48.410;9.054;2023-08-17T07:47:20;12.70;;;6.77;;
2396;SDS011;1209;48.410;9.054;2023-08-17T07:49:46;7.53;;;6.40;;
2396;SDS011;1209;48.410;9.054;2023-08-17T07:52:11;8.37;;;7.33;;
2396;SDS011;1209;48.410;9.054;2023-08-17T07:54:37;9.87;;;7.87;;
2396;SDS011;1209;48.410;9.054;2023-08-17T07:57:02;7.37;;;6.67;;
2396;SDS011;1209;48.410;9.054;2023-08-17T07:59:28;9.13;;;7.40;;
2396;SDS011;1209;48.410;9.054;2023-08-17T08:01:54;7.90;;;7.10;;
2396;SDS011;1209;48.410;9.054;2023-08-17T08:04:19;8.50;;;7.17;;
2396;SDS011;1209;48.410;9.054;2023-08-17T08:06:45;12.40;;;9.00;;
2396;SDS011;1209;48.410;9.054;2023-08-17T08:09:11;11.40;;;8.03;;
2396;SDS011;1209;48.410;9.054;2023-08-17T08:11:37;7.23;;;6.53;;
2396;SDS011;1209;48.410;9.054;2023-08-17T08:14:02;9.00;;;6.70;;
2396;SDS011;1209;48.410;9.054;2023-08-17T08:16:28;10.57;;;6.93;;
2396;SDS011;1209;48.410;9.054;2023-08-17T08:18:55;14.93;;;9.10;;
2396;SDS011;1209;48.410;9.054;2023-08-17T08:21:21;9.20;;;8.13;;
2396;SDS011;1209;48.410;9.054;2023-08-17T08:23:46;13.80;;;9.50;;
2396;SDS011;1209;48.410;9.054;2023-08-17T08:26:11;7.87;;;7.07;;
2396;SDS011;1209;48.410;9.054;2023-08-17T08:28:37;10.33;;;7.60;;
2396;SDS011;1209;48.410;9.054;2023-08-17T08:31:02;8.23;;;7.43;;
2396;SDS011;1209;48.410;9.054;2023-08-17T08:33:28;8.83;;;7.33;;
2396;SDS011;1209;48.410;9.054;2023-08-17T08:35:54;9.50;;;7.33;;
2396;SDS011;1209;48.410;9.054;2023-08-17T08:38:19;8.50;;;7.50;;
2396;SDS011;1209;48.410;9.054;2023-08-17T08:40:44;8.13;;;6.87;;
2396;SDS011;1209;48.410;9.054;2023-08-17T08:43:13;9.10;;;7.60;;
2396;SDS011;1209;48.410;9.054;2023-08-17T08:45:42;10.10;;;6.17;;
2396;SDS011;1209;48.410;9.054;2023-08-17T08:48:09;8.73;;;7.30;;
2396;SDS011;1209;48.410;9.054;2023-08-17T08:50:36;8.23;;;6.60;;
2396;SDS011;1209;48.410;9.054;2023-08-17T08:53:04;6.70;;;6.10;;
2396;SDS011;1209;48.410;9.054;2023-08-17T08:55:38;7.80;;;7.00;;
2396;SDS011;1209;48.410;9.054;2023-08-17T08:58:19;6.40;;;5.83;;
2396;SDS011;1209;48.410;9.054;2023-08-17T09:00:46;6.80;;;6.10;;
2396;SDS011;1209;48.410;9.054;2023-08-17T09:03:15;7.90;;;7.10;;
2396;SDS011;1209;48.410;9.054;2023-08-17T09:05:48;7.87;;;6.67;;
2396;SDS011;1209;48.410;9.054;2023-08-17T09:08:15;6.67;;;5.60;;
2396;SDS011;1209;48.410;9.054;2023-08-17T09:10:43;7.00;;;6.30;;
2396;SDS011;1209;48.410;9.054;2023-08-17T09:13:09;7.97;;;5.87;;
2396;SDS011;1209;48.410;9.054;2023-08-17T09:15:35;7.53;;;5.60;;
2396;SDS011;1209;48.410;9.054;2023-08-17T09:18:00;6.60;;;6.00;;
2396;SDS011;1209;48.410;9.054;2023-08-17T09:20:39;7.50;;;6.77;;
2396;SDS011;1209;48.410;9.054;2023-08-17T09:23:17;7.50;;;5.73;;
2396;SDS011;1209;48.410;9.054;2023-08-17T09:25:46;7.30;;;6.57;;
2396;SDS011;1209;48.410;9.054;2023-08-17T09:28:14;6.47;;;5.83;;
2396;SDS011;1209;48.410;9.054;2023-08-17T09:30:54;6.50;;;5.90;;
2396;SDS011;1209;48.410;9.054;2023-08-17T09:33:31;6.53;;;5.30;;
2396;SDS011;1209;48.410;9.054;2023-08-17T09:35:58;6.37;;;5.77;;
2396;SDS011;1209;48.410;9.054;2023-08-17T09:38:25;8.17;;;5.87;;
2396;SDS011;1209;48.410;9.054;2023-08-17T09:40:51;6.83;;;6.23;;
2396;SDS011;1209;48.410;9.054;2023-08-17T09:43:17;6.70;;;6.00;;
2396;SDS011;1209;48.410;9.054;2023-08-17T09:45:44;7.13;;;6.43;;
2396;SDS011;1209;48.410;9.054;2023-08-17T09:48:13;7.40;;;6.70;;
2396;SDS011;1209;48.410;9.054;2023-08-17T09:50:39;7.47;;;5.70;;
2396;SDS011;1209;48.410;9.054;2023-08-17T09:53:05;7.87;;;6.43;;
2396;SDS011;1209;48.410;9.054;2023-08-17T09:55:30;7.73;;;6.43;;
2396;SDS011;1209;48.410;9.054;2023-08-17T09:57:58;6.67;;;6.07;;
2396;SDS011;1209;48.410;9.054;2023-08-17T10:00:24;6.77;;;5.73;;
2396;SDS011;1209;48.410;9.054;2023-08-17T10:02:50;6.70;;;6.00;;
2396;SDS011;1209;48.410;9.054;2023-08-17T10:05:19;6.63;;;5.77;;
2396;SDS011;1209;48.410;9.054;2023-08-17T10:07:51;6.40;;;5.80;;
2396;SDS011;1209;48.410;9.054;2023-08-17T10:10:21;9.17;;;5.80;;
2396;SDS011;1209;48.410;9.054;2023-08-17T10:15:23;4.77;;;4.37;;
2396;SDS011;1209;48.410;9.054;2023-08-17T10:17:58;6.43;;;5.87;;
2396;SDS011;1209;48.410;9.054;2023-08-17T10:20:32;5.90;;;5.30;;
2396;SDS011;1209;48.410;9.054;2023-08-17T10:23:14;6.00;;;5.40;;
2396;SDS011;1209;48.410;9.054;2023-08-17T10:25:42;6.57;;;5.97;;
2396;SDS011;1209;48.410;9.054;2023-08-17T10:28:08;5.53;;;5.10;;
2396;SDS011;1209;48.410;9.054;2023-08-17T10:30:35;6.20;;;5.60;;
2396;SDS011;1209;48.410;9.054;2023-08-17T10:33:01;6.83;;;6.23;;
2396;SDS011;1209;48.410;9.054;2023-08-17T10:35:29;8.30;;;5.80;;
2396;SDS011;1209;48.410;9.054;2023-08-17T10:37:55;5.20;;;4.80;;
2396;SDS011;1209;48.410;9.054;2023-08-17T10:40:25;5.90;;;5.40;;
2396;SDS011;1209;48.410;9.054;2023-08-17T10:42:55;5.50;;;5.03;;
2396;SDS011;1209;48.410;9.054;2023-08-17T10:45:28;7.87;;;5.60;;
2396;SDS011;1209;48.410;9.054;2023-08-17T10:50:32;5.73;;;5.23;;
2396;SDS011;1209;48.410;9.054;2023-08-17T10:52:59;5.80;;;5.33;;
2396;SDS011;1209;48.410;9.054;2023-08-17T10:55:39;6.40;;;5.17;;
2396;SDS011;1209;48.410;9.054;2023-08-17T10:58:06;5.80;;;5.07;;
2396;SDS011;1209;48.410;9.054;2023-08-17T11:00:38;6.00;;;5.50;;
2396;SDS011;1209;48.410;9.054;2023-08-17T11:05:34;5.73;;;5.23;;
2396;SDS011;1209;48.410;9.054;2023-08-17T11:08:01;4.60;;;4.20;;
2396;SDS011;1209;48.410;9.054;2023-08-17T11:10:27;6.13;;;5.53;;
2396;SDS011;1209;48.410;9.054;2023-08-17T11:12:54;5.70;;;5.20;;
2396;SDS011;1209;48.410;9.054;2023-08-17T11:15:24;6.03;;;5.43;;
2396;SDS011;1209;48.410;9.054;2023-08-17T11:17:50;9.70;;;5.47;;
2396;SDS011;1209;48.410;9.054;2023-08-17T11:20:15;5.60;;;5.10;;
2396;SDS011;1209;48.410;9.054;2023-08-17T11:22:41;5.90;;;5.40;;
2396;SDS011;1209;48.410;9.054;2023-08-17T11:25:06;5.60;;;5.10;;
2396;SDS011;1209;48.410;9.054;2023-08-17T11:27:32;6.07;;;5.53;;
2396;SDS011;1209;48.410;9.054;2023-08-17T11:29:58;6.17;;;5.67;;
2396;SDS011;1209;48.410;9.054;2023-08-17T11:32:23;6.50;;;5.90;;
2396;SDS011;1209;48.410;9.054;2023-08-17T11:34:49;5.23;;;4.73;;
2396;SDS011;1209;48.410;9.054;2023-08-17T11:37:15;11.87;;;5.50;;
2396;SDS011;1209;48.410;9.054;2023-08-17T11:39:41;8.10;;;6.10;;
2396;SDS011;1209;48.410;9.054;2023-08-17T11:42:06;6.60;;;6.00;;
2396;SDS011;1209;48.410;9.054;2023-08-17T11:44:32;6.90;;;5.50;;
2396;SDS011;1209;48.410;9.054;2023-08-17T11:46:58;5.63;;;5.13;;
2396;SDS011;1209;48.410;9.054;2023-08-17T11:49:24;8.13;;;7.33;;
2396;SDS011;1209;48.410;9.054;2023-08-17T11:51:49;8.43;;;6.30;;
2396;SDS011;1209;48.410;9.054;2023-08-17T11:54:16;7.03;;;5.77;;
2396;SDS011;1209;48.410;9.054;2023-08-17T11:56:41;7.03;;;6.10;;
2396;SDS011;1209;48.410;9.054;2023-08-17T11:59:10;6.43;;;5.93;;
2396;SDS011;1209;48.410;9.054;2023-08-17T12:01:43;6.37;;;5.70;;
2396;SDS011;1209;48.410;9.054;2023-08-17T12:04:09;6.90;;;5.70;;
2396;SDS011;1209;48.410;9.054;2023-08-17T12:06:34;5.67;;;5.07;;
2396;SDS011;1209;48.410;9.054;2023-08-17T12:09:03;8.40;;;6.07;;
2396;SDS011;1209;48.410;9.054;2023-08-17T12:11:29;6.00;;;5.50;;
2396;SDS011;1209;48.410;9.054;2023-08-17T12:13:55;5.80;;;5.30;;
2396;SDS011;1209;48.410;9.054;2023-08-17T12:16:21;6.30;;;5.80;;
2396;SDS011;1209;48.410;9.054;2023-08-17T12:18:48;7.00;;;5.73;;
2396;SDS011;1209;48.410;9.054;2023-08-17T12:21:14;6.43;;;5.63;;
2396;SDS011;1209;48.410;9.054;2023-08-17T12:23:39;7.50;;;5.97;;
2396;SDS011;1209;48.410;9.054;2023-08-17T12:26:05;6.40;;;5.80;;
2396;SDS011;1209;48.410;9.054;2023-08-17T12:28:31;6.33;;;5.73;;
2396;SDS011;1209;48.410;9.054;2023-08-17T12:30:58;12.40;;;6.90;;
2396;SDS011;1209;48.410;9.054;2023-08-17T12:33:25;7.40;;;6.00;;
2396;SDS011;1209;48.410;9.054;2023-08-17T12:35:50;6.20;;;5.47;;
2396;SDS011;1209;48.410;9.054;2023-08-17T12:38:15;7.67;;;5.77;;
2396;SDS011;1209;48.410;9.054;2023-08-17T12:40:40;6.00;;;5.53;;
2396;SDS011;1209;48.410;9.054;2023-08-17T12:43:06;6.10;;;5.60;;
2396;SDS011;1209;48.410;9.054;2023-08-17T12:45:31;6.17;;;5.67;;
2396;SDS011;1209;48.410;9.054;2023-08-17T12:47:59;6.17;;;5.67;;
2396;SDS011;1209;48.410;9.054;2023-08-17T12:50:25;6.70;;;6.03;;
2396;SDS011;1209;48.410;9.054;2023-08-17T12:52:50;5.97;;;5.17;;
2396;SDS011;1209;48.410;9.054;2023-08-17T12:55:15;5.63;;;5.13;;
2396;SDS011;1209;48.410;9.054;2023-08-17T12:57:40;6.70;;;6.00;;
2396;SDS011;1209;48.410;9.054;2023-08-17T13:00:06;6.07;;;5.33;;
2396;SDS011;1209;48.410;9.054;2023-08-17T13:02:32;6.60;;;5.93;;
2396;SDS011;1209;48.410;9.054;2023-08-17T13:04:57;5.93;;;5.43;;
2396;SDS011;1209;48.410;9.054;2023-08-17T13:07:22;6.87;;;6.27;;
2396;SDS011;1209;48.410;9.054;2023-08-17T13:09:48;5.50;;;5.00;;
2396;SDS011;1209;48.410;9.054;2023-08-17T13:12:13;6.87;;;6.17;;
2396;SDS011;1209;48.410;9.054;2023-08-17T13:14:38;6.20;;;5.67;;
2396;SDS011;1209;48.410;9.054;2023-08-17T13:17:04;5.63;;;5.13;;
2396;SDS011;1209;48.410;9.054;2023-08-17T13:19:29;6.40;;;5.70;;
2396;SDS011;1209;48.410;9.054;2023-08-17T13:21:54;5.30;;;4.80;;
2396;SDS011;1209;48.410;9.054;2023-08-17T13:24:19;6.27;;;5.67;;
2396;SDS011;1209;48.410;9.054;2023-08-17T13:26:45;6.33;;;4.73;;
2396;SDS011;1209;48.410;9.054;2023-08-17T13:29:10;6.30;;;5.47;;
2396;SDS011;1209;48.410;9.054;2023-08-17T13:31:35;5.73;;;5.20;;
2396;SDS011;1209;48.410;9.054;2023-08-17T13:34:01;6.87;;;5.67;;
2396;SDS011;1209;48.410;9.054;2023-08-17T13:36:26;6.17;;;5.67;;
2396;SDS011;1209;48.410;9.054;2023-08-17T13:38:51;7.93;;;5.80;;
2396;SDS011;1209;48.410;9.054;2023-08-17T13:41:16;6.80;;;6.13;;
2396;SDS011;1209;48.410;9.054;2023-08-17T13:43:42;6.97;;;6.20;;
2396;SDS011;1209;48.410;9.054;2023-08-17T13:46:07;7.50;;;6.27;;
2396;SDS011;1209;48.410;9.054;2023-08-17T13:48:32;6.90;;;5.87;;
2396;SDS011;1209;48.410;9.054;2023-08-17T13:50:58;7.70;;;6.37;;
2396;SDS011;1209;48.410;9.054;2023-08-17T13:53:23;8.63;;;5.97;;
2396;SDS011;1209;48.410;9.054;2023-08-17T13:55:48;5.53;;;4.87;;
2396;SDS011;1209;48.410;9.054;2023-08-17T13:58:14;6.63;;;6.03;;
2396;SDS011;1209;48.410;9.054;2023-08-17T14:00:40;5.70;;;5.00;;
2396;SDS011;1209;48.410;9.054;2023-08-17T14:03:06;6.27;;;5.70;;
2396;SDS011;1209;48.410;9.054;2023-08-17T14:05:31;6.13;;;5.57;;
2396;SDS011;1209;48.410;9.054;2023-08-17T14:07:57;6.87;;;6.17;;
2396;SDS011;1209;48.410;9.054;2023-08-17T14:10:22;9.87;;;6.00;;
2396;SDS011;1209;48.410;9.054;2023-08-17T14:12:47;8.67;;;6.20;;
2396;SDS011;1209;48.410;9.054;2023-08-17T14:15:13;6.00;;;5.40;;
2396;SDS011;1209;48.410;9.054;2023-08-17T14:17:39;8.87;;;5.90;;
2396;SDS011;1209;48.410;9.054;2023-08-17T14:20:04;7.10;;;5.27;;
2396;SDS011;1209;48.410;9.054;2023-08-17T14:22:30;5.90;;;5.43;;
2396;SDS011;1209;48.410;9.054;2023-08-17T14:24:55;5.33;;;4.73;;
2396;SDS011;1209;48.410;9.054;2023-08-17T14:27:21;5.67;;;5.17;;
2396;SDS011;1209;48.410;9.054;2023-08-17T14:29:46;7.83;;;5.80;;
2396;SDS011;1209;48.410;9.054;2023-08-17T14:32:11;6.00;;;5.50;;
2396;SDS011;1209;48.410;9.054;2023-08-17T14:34:37;6.70;;;5.97;;
2396;SDS011;1209;48.410;9.054;2023-08-17T14:37:02;5.63;;;5.13;;
2396;SDS011;1209;48.410;9.054;2023-08-17T14:39:27;5.47;;;4.97;;
2396;SDS011;1209;48.410;9.054;2023-08-17T14:41:53;6.43;;;5.80;;
2396;SDS011;1209;48.410;9.054;2023-08-17T14:44:18;12.43;;;5.63;;
2396;SDS011;1209;48.410;9.054;2023-08-17T14:46:43;6.50;;;5.90;;
2396;SDS011;1209;48.410;9.054;2023-08-17T14:49:09;5.10;;;4.53;;
2396;SDS011;1209;48.410;9.054;2023-08-17T14:51:37;5.93;;;5.43;;
2396;SDS011;1209;48.410;9.054;2023-08-17T14:54:04;6.50;;;5.70;;
2396;SDS011;1209;48.410;9.054;2023-08-17T14:56:30;5.63;;;5.03;;
2396;SDS011;1209;48.410;9.054;2023-08-17T14:58:55;5.57;;;4.93;;
2396;SDS011;1209;48.410;9.054;2023-08-17T15:01:20;5.27;;;4.87;;
2396;SDS011;1209;48.410;9.054;2023-08-17T15:03:45;5.67;;;5.03;;
2396;SDS011;1209;48.410;9.054;2023-08-17T15:06:11;7.23;;;5.90;;
2396;SDS011;1209;48.410;9.054;2023-08-17T15:08:37;6.23;;;5.73;;
2396;SDS011;1209;48.410;9.054;2023-08-17T15:11:02;4.87;;;4.47;;
2396;SDS011;1209;48.410;9.054;2023-08-17T15:13:28;6.07;;;5.57;;
2396;SDS011;1209;48.410;9.054;2023-08-17T15:15:54;5.70;;;5.20;;
2396;SDS011;1209;48.410;9.054;2023-08-17T15:18:20;5.00;;;4.60;;
2396;SDS011;1209;48.410;9.054;2023-08-17T15:20:45;6.03;;;5.43;;